Time;durP1;ratioP1;P1;durP2;ratioP2;P2;SDS_P1;SDS_P2;PMS_P1;PMS_P2;Temp;Humidity;BMP_temperature;BMP_pressure;BME280_temperature;BME280_humidity;BME280_pressure;Samples;Min_cycle;Max_cycle;Signal;HPM_P1;HPM_P2
2020/12/17 00:00:19;;;;;;;20.87;13.33;;;5.60;99.90;;;;;;5098457;28;20442;-84
2020/12/17 00:02:45;;;;;;;17.90;10.43;;;5.70;99.90;;;;;;5080014;28;20450;-84
2020/12/17 00:05:10;;;;;;;19.50;11.03;;;5.70;99.90;;;;;;5099166;28;20503;-84
2020/12/17 00:07:38;;;;;;;26.40;12.90;;;5.70;99.90;;;;;;5098806;28;20485;-85
2020/12/17 00:10:08;;;;;;;20.03;10.97;;;5.50;99.90;;;;;;5098744;28;20635;-84
2020/12/17 00:12:37;;;;;;;15.20;9.80;;;5.60;99.90;;;;;;5080903;28;20440;-83
2020/12/17 00:15:05;;;;;;;20.10;11.63;;;5.40;99.90;;;;;;5081069;28;20614;-84
2020/12/17 00:17:32;;;;;;;17.53;11.23;;;5.40;99.90;;;;;;5098601;28;20479;-83
2020/12/17 00:19:58;;;;;;;14.50;9.20;;;5.60;99.90;;;;;;5098097;28;20421;-83
2020/12/17 00:22:23;;;;;;;17.40;11.27;;;5.70;99.90;;;;;;5098105;28;20530;-83
2020/12/17 00:24:49;;;;;;;14.47;8.93;;;5.60;99.90;;;;;;5098008;28;20213;-83
2020/12/17 00:27:15;;;;;;;25.17;12.40;;;5.50;99.90;;;;;;5055197;28;20621;-83
2020/12/17 00:29:43;;;;;;;22.43;11.27;;;5.40;99.90;;;;;;5055479;28;20195;-82
2020/12/17 00:32:09;;;;;;;18.23;9.80;;;5.50;99.90;;;;;;5054266;28;20218;-82
2020/12/17 00:34:34;;;;;;;19.13;11.27;;;5.60;99.90;;;;;;5054687;28;20486;-83
2020/12/17 00:37:00;;;;;;;15.03;9.80;;;5.50;99.90;;;;;;5038253;28;20226;-83
2020/12/17 00:39:26;;;;;;;14.37;9.67;;;5.30;99.90;;;;;;5055008;28;20156;-83
2020/12/17 00:41:51;;;;;;;20.60;10.50;;;5.40;99.90;;;;;;5054807;28;20531;-83
2020/12/17 00:44:17;;;;;;;18.03;10.23;;;5.50;99.90;;;;;;5054433;28;20609;-83
2020/12/17 00:46:43;;;;;;;14.90;9.63;;;5.60;99.90;;;;;;5054495;28;20180;-83
2020/12/17 00:49:09;;;;;;;20.23;10.67;;;5.60;99.90;;;;;;5053771;28;20160;-84
2020/12/17 00:51:34;;;;;;;18.17;10.70;;;5.70;99.90;;;;;;5055915;28;20156;-83
2020/12/17 00:54:00;;;;;;;20.50;12.10;;;5.80;99.90;;;;;;5056202;28;20210;-83
2020/12/17 00:56:26;;;;;;;15.43;9.57;;;5.70;99.90;;;;;;5055217;28;20533;-83
2020/12/17 00:58:52;;;;;;;19.70;11.00;;;5.50;99.90;;;;;;5087196;28;20179;-82
2020/12/17 01:01:17;;;;;;;15.90;9.17;;;5.60;99.90;;;;;;5100194;28;20212;-83
2020/12/17 01:03:43;;;;;;;19.17;9.57;;;5.60;99.90;;;;;;5090345;28;20181;-82
2020/12/17 01:06:09;;;;;;;21.30;10.07;;;5.60;99.90;;;;;;5112775;28;20147;-82
2020/12/17 01:08:35;;;;;;;16.60;9.50;;;5.70;99.90;;;;;;5114784;28;20226;-83
2020/12/17 01:11:04;;;;;;;17.70;10.03;;;5.70;99.90;;;;;;5117107;28;20175;-82
2020/12/17 01:13:30;;;;;;;13.13;8.73;;;5.70;99.90;;;;;;5115705;28;20511;-82
2020/12/17 01:15:56;;;;;;;17.73;9.67;;;5.80;99.90;;;;;;5111340;28;20453;-80
2020/12/17 01:18:21;;;;;;;12.50;7.50;;;5.90;99.90;;;;;;5112290;28;20208;-82
2020/12/17 01:20:47;;;;;;;13.77;8.77;;;5.90;99.90;;;;;;5113171;28;20623;-80
2020/12/17 01:23:13;;;;;;;11.23;6.77;;;5.70;99.90;;;;;;5094481;28;20178;-80
2020/12/17 01:25:41;;;;;;;18.27;9.50;;;5.70;99.90;;;;;;5112693;28;20181;-80
2020/12/17 01:28:13;;;;;;;15.07;10.47;;;5.50;99.90;;;;;;5059549;28;20163;-80
2020/12/17 01:30:39;;;;;;;11.80;8.33;;;5.50;99.90;;;;;;5111369;28;20429;-80
2020/12/17 01:33:05;;;;;;;18.20;9.60;;;5.50;99.90;;;;;;5088785;28;20448;-82
2020/12/17 01:35:33;;;;;;;18.27;10.53;;;5.60;99.90;;;;;;5097395;28;20848;-83
2020/12/17 01:37:59;;;;;;;11.60;8.00;;;5.50;99.90;;;;;;5097760;28;20214;-84
2020/12/17 01:40:25;;;;;;;12.57;8.67;;;5.50;99.90;;;;;;5080083;28;20448;-84
2020/12/17 01:42:50;;;;;;;15.23;9.17;;;5.70;99.90;;;;;;5097916;28;20165;-84
2020/12/17 01:45:16;;;;;;;12.33;8.47;;;5.60;99.90;;;;;;5098148;28;20215;-83
2020/12/17 01:47:48;;;;;;;14.90;7.80;;;5.60;99.90;;;;;;5107773;28;20159;-83
2020/12/17 01:50:14;;;;;;;13.17;10.10;;;5.60;99.90;;;;;;5117787;28;20147;-83
2020/12/17 01:52:40;;;;;;;11.73;7.77;;;5.60;99.90;;;;;;5117924;28;20426;-82
2020/12/17 01:55:06;;;;;;;13.43;8.20;;;5.50;99.90;;;;;;5112931;28;20383;-82
2020/12/17 01:57:34;;;;;;;13.93;8.40;;;5.60;99.90;;;;;;5097548;28;20163;-83
2020/12/17 02:00:05;;;;;;;9.80;7.70;;;5.60;99.90;;;;;;5096922;28;20195;-81
2020/12/17 02:02:32;;;;;;;11.73;7.30;;;5.60;99.90;;;;;;5096464;28;20372;-84
2020/12/17 02:05:00;;;;;;;14.20;9.23;;;5.80;99.90;;;;;;5096252;28;20748;-83
2020/12/17 02:07:27;;;;;;;16.13;8.27;;;5.70;99.90;;;;;;5078962;28;20367;-83
2020/12/17 02:09:54;;;;;;;11.90;7.43;;;5.50;99.90;;;;;;5097092;28;20858;-83
2020/12/17 02:12:20;;;;;;;12.37;7.40;;;5.50;99.90;;;;;;5100012;28;20466;-83
2020/12/17 02:14:45;;;;;;;16.40;9.57;;;5.50;99.90;;;;;;5098404;28;20848;-83
2020/12/17 02:17:11;;;;;;;9.77;7.50;;;5.50;99.90;;;;;;5099979;28;20212;-82
2020/12/17 02:19:37;;;;;;;14.20;9.30;;;5.40;99.90;;;;;;5100210;28;20190;-83
2020/12/17 02:22:03;;;;;;;18.60;8.63;;;5.60;99.90;;;;;;5047233;28;20517;-83
2020/12/17 02:24:29;;;;;;;8.23;6.67;;;5.30;99.90;;;;;;5099854;28;20158;-83
2020/12/17 02:26:54;;;;;;;12.50;6.83;;;5.50;99.90;;;;;;5081199;28;20262;-83
2020/12/17 02:29:21;;;;;;;9.90;8.17;;;5.50;99.90;;;;;;5100559;28;20479;-82
2020/12/17 02:31:47;;;;;;;14.90;9.70;;;5.50;99.90;;;;;;5099975;28;20162;-83
2020/12/17 02:34:13;;;;;;;18.37;8.67;;;5.60;99.90;;;;;;5099342;28;20469;-83
2020/12/17 02:36:39;;;;;;;8.90;6.90;;;5.60;99.90;;;;;;5082014;28;20396;-83
2020/12/17 02:39:05;;;;;;;9.17;6.70;;;5.50;99.90;;;;;;5099550;28;20420;-83
2020/12/17 02:41:33;;;;;;;10.27;7.77;;;5.20;99.90;;;;;;5081329;28;20446;-83
2020/12/17 02:43:58;;;;;;;14.10;8.43;;;5.30;99.90;;;;;;5081833;28;20397;-83
2020/12/17 02:46:24;;;;;;;12.27;8.00;;;5.40;99.90;;;;;;5099383;28;20479;-82
2020/12/17 02:48:53;;;;;;;14.57;8.90;;;5.40;99.90;;;;;;5081413;28;20159;-83
2020/12/17 02:51:19;;;;;;;8.90;6.33;;;5.40;99.90;;;;;;5098861;28;20623;-83
2020/12/17 02:53:45;;;;;;;11.07;7.07;;;5.50;99.90;;;;;;5081231;28;20429;-83
2020/12/17 02:56:13;;;;;;;12.33;6.77;;;5.30;99.90;;;;;;5098746;28;20384;-83
2020/12/17 02:58:39;;;;;;;14.40;8.47;;;5.40;99.90;;;;;;5099023;28;20436;-84
2020/12/17 03:01:05;;;;;;;8.97;6.50;;;5.30;99.90;;;;;;5101989;28;20397;-84
2020/12/17 03:03:31;;;;;;;12.80;7.10;;;5.20;99.90;;;;;;5108568;28;20396;-83
2020/12/17 03:05:57;;;;;;;15.47;8.60;;;5.40;99.90;;;;;;5091712;28;20182;-84
2020/12/17 03:08:26;;;;;;;13.10;8.23;;;5.30;99.90;;;;;;5108954;28;20400;-83
2020/12/17 03:10:53;;;;;;;18.80;7.80;;;5.30;99.90;;;;;;5099181;28;20158;-83
2020/12/17 03:13:19;;;;;;;17.37;7.83;;;5.30;99.90;;;;;;5098183;28;20411;-81
2020/12/17 03:15:46;;;;;;;12.13;8.20;;;5.30;99.90;;;;;;5098061;28;20471;-83
2020/12/17 03:18:12;;;;;;;11.87;7.10;;;5.30;99.90;;;;;;5098640;28;20392;-83
2020/12/17 03:20:37;;;;;;;12.57;8.10;;;5.50;99.90;;;;;;5098396;28;20399;-83
2020/12/17 03:23:03;;;;;;;14.67;9.00;;;5.40;99.90;;;;;;5098882;28;20159;-83
2020/12/17 03:25:29;;;;;;;8.20;6.70;;;5.30;99.90;;;;;;5098518;28;20166;-82
2020/12/17 03:27:55;;;;;;;12.70;8.20;;;5.40;99.90;;;;;;5079963;28;20162;-84
2020/12/17 03:30:21;;;;;;;11.27;7.10;;;5.50;99.90;;;;;;5098597;28;20201;-83
2020/12/17 03:32:46;;;;;;;12.27;7.97;;;5.60;99.90;;;;;;5098943;28;20197;-83
2020/12/17 03:35:12;;;;;;;9.03;7.60;;;5.40;99.90;;;;;;5098594;28;20518;-83
2020/12/17 03:37:38;;;;;;;11.33;7.07;;;5.40;99.90;;;;;;5098475;28;20456;-83
2020/12/17 03:40:04;;;;;;;14.43;7.30;;;5.40;99.90;;;;;;5098366;28;20155;-83
2020/12/17 03:42:30;;;;;;;8.43;6.73;;;5.50;99.90;;;;;;5098621;28;20592;-83
2020/12/17 03:44:55;;;;;;;13.80;8.77;;;5.50;99.90;;;;;;5098292;28;20393;-83
2020/12/17 03:47:21;;;;;;;12.07;8.40;;;5.60;99.90;;;;;;5098609;28;20163;-83
2020/12/17 03:49:48;;;;;;;10.27;9.07;;;5.60;99.90;;;;;;5098361;28;20163;-83
2020/12/17 03:52:14;;;;;;;8.30;7.37;;;5.50;99.90;;;;;;5098137;28;20229;-81
2020/12/17 03:54:40;;;;;;;11.13;7.57;;;5.40;99.90;;;;;;5098396;28;20371;-81
2020/12/17 03:57:06;;;;;;;14.97;7.70;;;5.50;99.90;;;;;;5098049;28;20381;-82
2020/12/17 03:59:32;;;;;;;12.03;9.73;;;5.50;99.90;;;;;;5097945;28;20243;-82
2020/12/17 04:01:58;;;;;;;8.63;6.63;;;5.50;99.90;;;;;;5079413;28;20174;-81
2020/12/17 04:04:23;;;;;;;9.23;7.37;;;5.50;99.90;;;;;;5097958;28;20770;-82
2020/12/17 04:06:49;;;;;;;12.20;8.00;;;5.40;99.90;;;;;;5079659;28;20151;-83
2020/12/17 04:09:15;;;;;;;12.27;8.37;;;5.30;99.90;;;;;;5096930;28;20167;-83
2020/12/17 04:11:41;;;;;;;16.50;8.37;;;5.40;99.90;;;;;;5097413;28;20245;-83
2020/12/17 04:14:06;;;;;;;15.27;8.77;;;5.40;99.90;;;;;;5096378;28;20233;-81
2020/12/17 04:16:32;;;;;;;14.47;8.50;;;5.50;99.90;;;;;;5096766;28;20501;-83
2020/12/17 04:18:58;;;;;;;11.57;8.50;;;5.50;99.90;;;;;;5079416;28;20242;-82
2020/12/17 04:21:24;;;;;;;11.87;8.10;;;5.70;99.90;;;;;;5079532;28;20928;-82
2020/12/17 04:23:50;;;;;;;12.30;7.50;;;5.50;99.90;;;;;;5098795;28;20183;-82
2020/12/17 04:26:16;;;;;;;12.37;6.53;;;5.40;99.90;;;;;;5102121;28;20163;-83
2020/12/17 04:28:42;;;;;;;14.00;9.10;;;5.40;99.90;;;;;;5098559;28;20162;-84
2020/12/17 04:31:08;;;;;;;11.27;9.43;;;5.40;99.90;;;;;;5097402;28;20473;-82
2020/12/17 04:33:34;;;;;;;11.10;7.97;;;5.40;99.90;;;;;;5096282;28;20440;-83
2020/12/17 04:36:00;;;;;;;8.17;5.90;;;5.40;99.90;;;;;;5079170;28;20158;-83
2020/12/17 04:38:26;;;;;;;15.53;9.10;;;5.20;99.90;;;;;;5096660;28;20391;-83
2020/12/17 04:40:52;;;;;;;10.77;8.80;;;5.50;99.90;;;;;;5096752;28;20912;-83
2020/12/17 04:43:18;;;;;;;21.20;10.50;;;5.50;99.90;;;;;;5096597;28;20397;-83
2020/12/17 04:45:44;;;;;;;13.60;8.87;;;5.50;99.90;;;;;;5095302;28;20897;-83
2020/12/17 04:48:15;;;;;;;11.90;7.97;;;5.50;99.90;;;;;;5097441;28;20205;-83
2020/12/17 04:50:43;;;;;;;14.67;9.77;;;5.30;99.90;;;;;;5097460;28;20393;-83
2020/12/17 04:53:14;;;;;;;25.43;8.80;;;5.40;99.90;;;;;;5061007;28;20440;-83
2020/12/17 04:55:41;;;;;;;13.00;7.67;;;5.40;99.90;;;;;;5096450;28;20766;-83
2020/12/17 04:58:09;;;;;;;11.20;8.90;;;5.30;99.90;;;;;;5078726;28;20419;-82
2020/12/17 05:00:40;;;;;;;10.60;8.63;;;5.30;99.90;;;;;;5115049;28;20397;-83
2020/12/17 05:03:12;;;;;;;13.30;7.20;;;5.30;99.90;;;;;;5099071;28;20392;-83
2020/12/17 05:05:39;;;;;;;14.80;9.30;;;5.20;99.90;;;;;;5082373;28;20388;-83
2020/12/17 05:08:05;;;;;;;14.27;6.07;;;5.40;99.90;;;;;;5117071;28;20448;-82
2020/12/17 05:10:31;;;;;;;17.70;10.07;;;5.20;99.90;;;;;;5117399;28;20370;-82
2020/12/17 05:12:57;;;;;;;10.53;8.20;;;5.10;99.90;;;;;;5116721;28;20296;-83
2020/12/17 05:15:25;;;;;;;9.83;8.80;;;5.10;99.90;;;;;;5117605;28;20220;-83
2020/12/17 05:17:52;;;;;;;13.60;8.23;;;5.00;99.90;;;;;;5129063;28;20154;-82
2020/12/17 05:20:18;;;;;;;14.63;7.90;;;4.90;99.90;;;;;;5128721;28;20423;-83
2020/12/17 05:22:45;;;;;;;12.50;7.30;;;4.90;99.90;;;;;;5110053;28;20399;-83
2020/12/17 05:25:13;;;;;;;17.20;8.80;;;5.00;99.90;;;;;;5129035;28;20180;-83
2020/12/17 05:27:41;;;;;;;14.80;8.50;;;5.10;99.90;;;;;;5128104;28;20428;-83
2020/12/17 05:30:07;;;;;;;13.33;7.30;;;4.90;99.90;;;;;;5099672;28;20377;-83
2020/12/17 05:32:33;;;;;;;11.00;7.50;;;5.10;99.90;;;;;;5116778;28;20435;-83
2020/12/17 05:35:02;;;;;;;11.70;6.73;;;5.00;99.90;;;;;;5116546;28;20509;-83
2020/12/17 05:37:31;;;;;;;9.13;5.93;;;4.90;99.90;;;;;;5116371;28;20810;-83
2020/12/17 05:40:00;;;;;;;13.63;8.43;;;4.80;99.90;;;;;;5064352;28;20400;-83
2020/12/17 05:42:27;;;;;;;16.03;8.23;;;4.70;99.90;;;;;;5116621;28;20384;-83
2020/12/17 05:44:53;;;;;;;11.73;7.90;;;4.70;99.90;;;;;;5119577;28;20435;-83
2020/12/17 05:47:19;;;;;;;16.77;10.23;;;4.80;99.90;;;;;;5120823;28;20439;-81
2020/12/17 05:49:45;;;;;;;13.80;10.33;;;4.80;99.90;;;;;;5061733;28;20429;-82
2020/12/17 05:52:16;;;;;;;13.93;7.07;;;4.90;99.90;;;;;;5079230;28;20217;-82
2020/12/17 05:55:00;;;;;;;14.73;7.30;;;4.90;99.90;;;;;;5069910;28;20245;-82
2020/12/17 05:57:25;;;;;;;15.60;9.07;;;4.80;99.90;;;;;;5070234;28;20417;-82
2020/12/17 05:59:56;;;;;;;13.47;7.67;;;4.80;99.90;;;;;;5093400;28;20392;-83
2020/12/17 06:02:33;;;;;;;9.93;8.73;;;4.80;99.90;;;;;;5087384;28;20178;-82
2020/12/17 06:05:05;;;;;;;13.80;7.23;;;4.80;99.90;;;;;;5081528;28;20416;-82
2020/12/17 06:07:48;;;;;;;10.17;6.90;;;4.60;99.90;;;;;;5075863;28;20918;-82
2020/12/17 06:10:23;;;;;;;11.10;7.33;;;4.50;99.90;;;;;;5100316;28;20416;-83
2020/12/17 06:12:51;;;;;;;10.70;7.87;;;4.60;99.90;;;;;;5096786;28;20530;-82
2020/12/17 06:15:34;;;;;;;12.33;6.40;;;4.60;99.90;;;;;;5086498;28;20524;-83
2020/12/17 06:18:02;;;;;;;10.73;7.03;;;4.50;99.90;;;;;;5099666;28;20857;-84
2020/12/17 06:20:31;;;;;;;14.27;9.27;;;4.50;99.90;;;;;;5082443;28;20440;-84
2020/12/17 06:23:00;;;;;;;8.57;5.60;;;4.40;99.90;;;;;;5091350;28;20391;-84
2020/12/17 06:25:27;;;;;;;10.70;6.60;;;4.40;99.90;;;;;;5081645;28;20392;-83
2020/12/17 06:27:54;;;;;;;14.43;10.13;;;4.30;99.90;;;;;;5087595;28;20861;-84
2020/12/17 06:30:23;;;;;;;12.40;8.50;;;4.50;99.90;;;;;;5091460;28;20512;-84
2020/12/17 06:32:49;;;;;;;13.80;8.90;;;4.50;99.90;;;;;;5098423;28;20431;-83
2020/12/17 06:35:27;;;;;;;18.80;9.70;;;4.60;99.90;;;;;;5097821;28;20422;-84
2020/12/17 06:37:55;;;;;;;10.67;7.57;;;4.50;99.90;;;;;;5080034;28;20393;-84
2020/12/17 06:40:29;;;;;;;15.33;7.37;;;4.40;99.90;;;;;;5080836;28;20386;-84
2020/12/17 06:42:55;;;;;;;12.67;7.90;;;4.60;99.90;;;;;;5114060;28;20391;-84
2020/12/17 06:45:31;;;;;;;12.30;7.33;;;4.40;99.90;;;;;;5120586;28;20439;-84
2020/12/17 06:47:57;;;;;;;18.30;8.57;;;4.30;99.90;;;;;;5107799;28;20489;-83
2020/12/17 06:50:28;;;;;;;18.43;8.10;;;4.50;99.90;;;;;;5085673;28;20442;-83
2020/12/17 06:53:14;;;;;;;16.20;9.17;;;4.50;99.90;;;;;;5079348;28;20662;-83
2020/12/17 06:55:50;;;;;;;10.77;6.87;;;4.60;99.90;;;;;;5044940;28;20780;-84
2020/12/17 06:58:17;;;;;;;14.90;7.60;;;4.60;99.90;;;;;;5045464;28;20866;-84
2020/12/17 07:00:43;;;;;;;17.70;9.50;;;4.50;99.90;;;;;;5082097;28;20424;-84
2020/12/17 07:03:09;;;;;;;15.33;9.57;;;4.50;99.90;;;;;;5096018;28;20441;-83
2020/12/17 07:05:36;;;;;;;20.83;9.50;;;4.50;99.90;;;;;;5086700;28;20432;-82
2020/12/17 07:08:03;;;;;;;11.80;6.37;;;4.50;99.90;;;;;;5078581;28;20619;-83
2020/12/17 07:10:31;;;;;;;10.60;6.90;;;4.50;99.90;;;;;;5087389;28;20558;-82
2020/12/17 07:12:57;;;;;;;12.90;7.67;;;4.40;99.90;;;;;;5107388;28;20426;-82
2020/12/17 07:15:38;;;;;;;16.57;8.53;;;4.40;99.90;;;;;;5103455;28;20617;-82
2020/12/17 07:18:23;;;;;;;13.20;7.47;;;4.20;99.90;;;;;;5106077;28;20422;-81
2020/12/17 07:20:52;;;;;;;16.27;9.37;;;4.20;99.90;;;;;;5095554;28;20505;-82
2020/12/17 07:23:19;;;;;;;13.50;8.03;;;4.30;99.90;;;;;;5080356;28;20799;-81
2020/12/17 07:25:49;;;;;;;12.50;8.93;;;4.20;99.90;;;;;;5076274;28;20400;-82
2020/12/17 07:28:15;;;;;;;16.00;8.90;;;4.20;99.90;;;;;;5081668;28;20424;-82
2020/12/17 07:30:51;;;;;;;10.70;7.23;;;4.40;99.90;;;;;;5092245;28;20541;-84
2020/12/17 07:33:40;;;;;;;13.20;7.40;;;4.30;99.90;;;;;;5084786;28;20233;-82
2020/12/17 07:36:08;;;;;;;12.70;7.83;;;4.30;99.90;;;;;;5091040;28;20424;-82
2020/12/17 07:38:34;;;;;;;15.57;10.90;;;4.30;99.90;;;;;;5067295;28;20421;-83
2020/12/17 07:41:00;;;;;;;10.97;7.97;;;4.50;99.90;;;;;;5082157;28;20441;-83
2020/12/17 07:43:41;;;;;;;17.87;9.07;;;4.30;99.90;;;;;;5089142;28;20470;-83
2020/12/17 07:46:08;;;;;;;14.40;9.20;;;4.30;99.90;;;;;;5086451;28;20193;-82
2020/12/17 07:48:37;;;;;;;20.87;9.07;;;4.40;99.90;;;;;;5081944;28;20444;-83
2020/12/17 07:51:05;;;;;;;18.13;9.60;;;4.40;99.90;;;;;;5087486;28;20383;-84
2020/12/17 07:53:32;;;;;;;15.33;8.80;;;4.30;99.90;;;;;;5099408;28;20447;-81
2020/12/17 07:55:58;;;;;;;16.33;9.50;;;4.30;99.90;;;;;;5094546;28;20793;-83
2020/12/17 07:58:24;;;;;;;18.90;9.50;;;4.30;99.90;;;;;;5049569;28;20441;-83
2020/12/17 08:00:53;;;;;;;19.83;9.73;;;4.30;99.90;;;;;;5077784;28;20427;-83
2020/12/17 08:03:19;;;;;;;20.83;9.90;;;4.30;99.90;;;;;;5062220;28;20195;-83
2020/12/17 08:05:46;;;;;;;13.47;9.63;;;4.40;99.90;;;;;;5069167;28;20905;-83
2020/12/17 08:08:14;;;;;;;15.70;9.60;;;4.40;99.90;;;;;;5068083;28;20468;-83
2020/12/17 08:10:40;;;;;;;20.87;10.10;;;4.50;99.90;;;;;;5035758;28;20434;-83
2020/12/17 08:13:06;;;;;;;13.40;8.93;;;4.30;99.90;;;;;;5060786;28;20522;-82
2020/12/17 08:15:32;;;;;;;16.93;9.87;;;4.40;99.90;;;;;;5068516;28;20491;-82
2020/12/17 08:17:59;;;;;;;18.77;10.57;;;4.40;99.90;;;;;;5065882;28;20434;-82
2020/12/17 08:20:25;;;;;;;16.93;8.00;;;4.40;99.90;;;;;;5068159;28;20483;-82
2020/12/17 08:22:54;;;;;;;28.57;10.90;;;4.50;99.90;;;;;;5066752;28;20445;-82
2020/12/17 08:25:23;;;;;;;20.77;9.30;;;4.60;99.90;;;;;;5069835;28;20408;-82
2020/12/17 08:27:52;;;;;;;17.33;9.57;;;4.50;99.90;;;;;;5063632;28;20820;-81
2020/12/17 08:30:25;;;;;;;15.23;8.70;;;4.40;99.90;;;;;;5033746;28;20438;-85
2020/12/17 08:32:55;;;;;;;22.43;9.93;;;4.40;99.90;;;;;;5025401;28;20543;-84
2020/12/17 08:35:26;;;;;;;22.20;12.20;;;4.40;99.90;;;;;;5082543;28;20513;-81
2020/12/17 08:37:56;;;;;;;17.87;9.60;;;4.20;99.90;;;;;;5043432;28;20433;-80
2020/12/17 08:40:31;;;;;;;17.97;10.13;;;4.40;99.90;;;;;;5055810;28;20447;-83
2020/12/17 08:43:04;;;;;;;16.20;9.40;;;4.40;99.90;;;;;;5053336;28;20432;-81
2020/12/17 08:45:39;;;;;;;19.00;9.83;;;4.30;99.90;;;;;;5058058;28;20399;-81
2020/12/17 08:48:13;;;;;;;17.43;9.63;;;4.50;99.90;;;;;;5054555;28;20769;-81
2020/12/17 08:50:40;;;;;;;18.20;11.03;;;4.40;99.90;;;;;;5053109;28;20428;-81
2020/12/17 08:53:35;;;;;;;17.40;9.90;;;4.50;99.90;;;;;;5065234;28;20457;-85
2020/12/17 08:56:16;;;;;;;24.70;12.13;;;4.30;99.90;;;;;;5085981;28;20403;-83
2020/12/17 08:58:48;;;;;;;23.17;12.60;;;4.40;99.90;;;;;;5079465;28;20493;-83
2020/12/17 09:01:18;;;;;;;18.70;9.17;;;4.40;99.90;;;;;;5067837;28;20412;-82
2020/12/17 09:03:46;;;;;;;20.30;11.53;;;4.50;99.90;;;;;;5066921;28;20432;-81
2020/12/17 09:06:12;;;;;;;23.37;11.03;;;4.50;99.90;;;;;;5036713;28;20444;-82
2020/12/17 09:08:38;;;;;;;23.13;12.00;;;4.50;99.90;;;;;;5082156;28;20914;-81
2020/12/17 09:11:05;;;;;;;21.03;11.97;;;4.70;99.90;;;;;;5051973;28;20403;-81
2020/12/17 09:13:31;;;;;;;14.63;9.07;;;4.70;99.90;;;;;;5087880;28;20459;-83
2020/12/17 09:15:59;;;;;;;25.30;11.13;;;4.40;99.90;;;;;;5090185;28;20429;-80
2020/12/17 09:18:32;;;;;;;27.43;10.93;;;4.50;99.90;;;;;;5049051;28;20430;-81
2020/12/17 09:21:10;;;;;;;27.00;11.60;;;4.40;99.90;;;;;;5038440;28;20453;-79
2020/12/17 09:23:52;;;;;;;20.37;13.47;;;4.30;99.90;;;;;;5051185;28;20468;-80
2020/12/17 09:26:18;;;;;;;22.33;10.17;;;4.30;99.90;;;;;;5037235;28;20435;-81
2020/12/17 09:28:56;;;;;;;16.53;10.60;;;4.50;99.90;;;;;;5048380;28;20470;-81
2020/12/17 09:31:29;;;;;;;21.57;12.03;;;4.50;99.90;;;;;;5050850;28;20187;-80
2020/12/17 09:34:13;;;;;;;22.73;12.33;;;4.50;99.90;;;;;;5055626;28;20477;-79
2020/12/17 09:36:43;;;;;;;27.53;13.77;;;4.60;99.90;;;;;;5010954;28;20435;-78
2020/12/17 09:39:16;;;;;;;25.20;11.03;;;4.50;99.90;;;;;;5048780;28;20494;-80
2020/12/17 09:41:57;;;;;;;28.33;14.47;;;4.50;99.90;;;;;;4998485;28;20401;-78
2020/12/17 09:44:28;;;;;;;25.53;13.07;;;4.40;99.90;;;;;;4999593;28;20418;-81
2020/12/17 09:46:54;;;;;;;20.13;7.87;;;4.50;99.90;;;;;;5037714;28;20431;-80
2020/12/17 09:49:37;;;;;;;17.43;10.87;;;4.50;99.90;;;;;;5055801;28;20433;-81
2020/12/17 09:52:06;;;;;;;19.37;10.80;;;4.60;99.90;;;;;;5044285;28;20188;-81
2020/12/17 09:54:33;;;;;;;17.50;10.03;;;4.70;99.90;;;;;;5061001;28;20438;-80
2020/12/17 09:57:09;;;;;;;19.20;10.27;;;4.70;99.90;;;;;;5054880;28;20435;-82
2020/12/17 09:59:36;;;;;;;24.30;11.80;;;4.70;99.90;;;;;;5061917;28;20430;-83
2020/12/17 10:02:03;;;;;;;17.63;10.37;;;4.60;99.90;;;;;;5060817;28;20472;-81
2020/12/17 10:04:30;;;;;;;21.30;12.80;;;4.50;99.90;;;;;;5053917;28;20500;-80
2020/12/17 10:06:56;;;;;;;28.93;14.07;;;4.50;99.90;;;;;;5045596;28;20451;-80
2020/12/17 10:09:23;;;;;;;20.80;13.73;;;4.70;99.90;;;;;;5043953;28;20465;-80
2020/12/17 10:11:50;;;;;;;20.10;13.60;;;4.70;99.90;;;;;;5053219;28;20811;-80
2020/12/17 10:14:17;;;;;;;23.47;12.97;;;4.60;99.90;;;;;;5056355;28;21076;-81
2020/12/17 10:16:43;;;;;;;17.20;9.97;;;4.80;99.90;;;;;;5056171;28;20434;-81
2020/12/17 10:19:10;;;;;;;27.03;11.87;;;4.90;99.90;;;;;;5061494;28;20930;-80
2020/12/17 10:21:36;;;;;;;18.50;11.23;;;4.90;99.90;;;;;;5058984;28;20408;-81
2020/12/17 10:24:05;;;;;;;26.60;12.53;;;4.90;99.90;;;;;;5060200;28;20997;-82
2020/12/17 10:26:32;;;;;;;20.87;12.47;;;5.00;99.90;;;;;;5057860;28;20461;-80
2020/12/17 10:28:59;;;;;;;23.07;12.73;;;4.90;99.90;;;;;;5041885;28;21083;-79
2020/12/17 10:31:26;;;;;;;20.17;11.27;;;4.80;99.90;;;;;;5072168;28;20414;-80
2020/12/17 10:33:53;;;;;;;22.67;13.10;;;5.00;99.90;;;;;;5100999;28;20603;-81
2020/12/17 10:36:19;;;;;;;20.50;13.33;;;5.00;99.90;;;;;;5078225;28;20501;-79
2020/12/17 10:38:45;;;;;;;19.10;10.87;;;4.80;99.90;;;;;;5099509;28;20432;-81
2020/12/17 10:41:17;;;;;;;15.47;10.30;;;5.10;99.90;;;;;;5100974;28;20523;-81
2020/12/17 10:43:43;;;;;;;23.27;12.13;;;4.90;99.90;;;;;;5099923;28;20193;-81
2020/12/17 10:46:11;;;;;;;18.63;10.97;;;5.00;99.90;;;;;;5103765;28;20535;-80
2020/12/17 10:48:39;;;;;;;18.13;11.07;;;4.90;99.90;;;;;;5102672;28;20406;-80
2020/12/17 10:51:05;;;;;;;26.90;12.80;;;5.10;99.90;;;;;;5102588;28;20456;-81
2020/12/17 10:53:30;;;;;;;19.47;11.23;;;4.90;99.90;;;;;;5086086;28;20460;-80
2020/12/17 10:55:56;;;;;;;19.40;12.87;;;5.00;99.90;;;;;;5097952;28;20487;-80
2020/12/17 10:58:22;;;;;;;18.80;11.00;;;5.00;99.90;;;;;;5099663;28;20194;-80
2020/12/17 11:00:47;;;;;;;14.53;9.30;;;5.00;99.90;;;;;;5083804;28;20278;-82
2020/12/17 11:03:13;;;;;;;14.47;10.27;;;4.90;99.90;;;;;;5076371;28;20187;-81
2020/12/17 11:05:39;;;;;;;17.13;11.23;;;5.00;99.90;;;;;;5101101;28;20182;-80
2020/12/17 11:08:05;;;;;;;16.97;11.07;;;5.20;99.90;;;;;;5080643;28;20544;-81
2020/12/17 11:10:32;;;;;;;22.57;11.53;;;5.30;99.90;;;;;;5080356;28;20462;-81
2020/12/17 11:12:57;;;;;;;18.60;9.57;;;5.10;99.90;;;;;;5051999;28;20234;-82
2020/12/17 11:15:23;;;;;;;18.40;10.43;;;5.10;99.90;;;;;;5096499;28;20464;-81
2020/12/17 11:17:49;;;;;;;15.70;10.53;;;5.20;99.90;;;;;;5101178;28;20208;-80
2020/12/17 11:20:17;;;;;;;17.23;11.70;;;5.10;99.90;;;;;;5101545;28;20215;-82
2020/12/17 11:22:44;;;;;;;16.93;10.07;;;5.10;99.90;;;;;;5051582;28;20498;-82
2020/12/17 11:25:11;;;;;;;18.23;9.50;;;5.10;99.90;;;;;;5101109;28;20426;-79
2020/12/17 11:27:49;;;;;;;16.80;10.37;;;5.20;99.90;;;;;;5071299;28;20430;-79
2020/12/17 11:30:15;;;;;;;16.80;9.30;;;5.30;99.90;;;;;;5101826;28;20428;-80
2020/12/17 11:32:41;;;;;;;14.10;8.93;;;5.60;99.90;;;;;;5083464;28;20463;-81
2020/12/17 11:35:07;;;;;;;13.10;9.63;;;5.50;99.90;;;;;;5100842;28;20182;-80
2020/12/17 11:37:34;;;;;;;13.43;9.40;;;5.50;99.90;;;;;;5099455;28;20194;-81
2020/12/17 11:40:00;;;;;;;16.93;9.57;;;5.40;99.90;;;;;;5100239;28;20460;-82
2020/12/17 11:42:32;;;;;;;15.63;10.07;;;5.40;99.90;;;;;;5093681;28;20737;-81
2020/12/17 11:44:58;;;;;;;14.33;8.43;;;5.50;99.90;;;;;;5074711;28;20486;-80
2020/12/17 11:47:24;;;;;;;15.60;8.67;;;5.50;99.90;;;;;;5075445;28;20487;-81
2020/12/17 11:49:49;;;;;;;12.23;8.70;;;5.50;99.90;;;;;;5097003;28;20213;-80
2020/12/17 11:52:15;;;;;;;14.23;10.37;;;5.50;99.90;;;;;;5109555;28;20184;-80
2020/12/17 11:54:41;;;;;;;11.07;6.43;;;5.60;99.90;;;;;;5099347;28;20178;-81
2020/12/17 11:57:07;;;;;;;10.37;7.60;;;5.40;99.90;;;;;;5094670;28;20185;-81
2020/12/17 11:59:34;;;;;;;13.97;8.63;;;5.40;99.90;;;;;;5096793;28;20218;-81
2020/12/17 12:02:06;;;;;;;13.03;8.40;;;5.50;99.90;;;;;;5081951;28;20217;-80
2020/12/17 12:04:33;;;;;;;19.87;9.57;;;5.40;99.90;;;;;;5098041;28;20399;-82
2020/12/17 12:07:05;;;;;;;19.60;10.10;;;5.50;99.90;;;;;;5094337;28;20446;-80
2020/12/17 12:09:33;;;;;;;12.23;9.57;;;5.60;99.90;;;;;;5038901;28;20433;-80
2020/12/17 12:12:02;;;;;;;12.30;8.37;;;5.60;99.90;;;;;;5069292;28;20440;-81
2020/12/17 12:14:27;;;;;;;10.40;7.33;;;5.70;99.90;;;;;;5091564;28;20476;-82
2020/12/17 12:16:53;;;;;;;14.47;9.50;;;5.70;99.90;;;;;;5105190;28;20415;-81
2020/12/17 12:19:19;;;;;;;13.80;9.60;;;5.60;99.90;;;;;;5102522;28;20191;-81
2020/12/17 12:21:48;;;;;;;16.73;10.77;;;5.60;99.90;;;;;;5098254;28;20178;-80
2020/12/17 12:24:15;;;;;;;15.70;8.87;;;5.70;99.90;;;;;;5070507;28;20429;-82
2020/12/17 12:26:41;;;;;;;11.37;8.37;;;5.70;99.90;;;;;;5100626;28;20450;-81
2020/12/17 12:29:07;;;;;;;12.57;9.33;;;5.70;99.90;;;;;;5104215;28;20383;-82
2020/12/17 12:31:36;;;;;;;13.77;9.07;;;5.70;99.90;;;;;;5088047;28;20420;-81
2020/12/17 12:34:04;;;;;;;11.47;7.33;;;5.70;99.90;;;;;;5108240;28;20479;-79
2020/12/17 12:36:31;;;;;;;9.87;8.23;;;5.50;99.90;;;;;;5089886;28;20409;-80
2020/12/17 12:38:57;;;;;;;13.43;8.30;;;5.70;99.90;;;;;;5099608;28;20443;-80
2020/12/17 12:41:32;;;;;;;11.23;7.57;;;5.70;99.90;;;;;;5092785;28;20446;-79
2020/12/17 12:43:58;;;;;;;14.80;8.90;;;5.70;99.90;;;;;;5055036;28;20418;-81
2020/12/17 12:46:23;;;;;;;14.47;8.20;;;5.60;99.90;;;;;;5067426;28;20493;-81
2020/12/17 12:48:49;;;;;;;13.73;8.30;;;5.60;99.90;;;;;;5071629;28;20256;-80